createdAt,value
2019-03-05T00:01:56.225Z,93865.48
2019-03-05T00:04:24.898Z,93864.13
2019-03-05T00:06:53.575Z,93861.06
2019-03-05T00:09:22.344Z,93851.63
2019-03-05T00:11:51.009Z,93850.17
2019-03-05T00:14:21.292Z,93850.28
2019-03-05T00:16:49.944Z,93857.56
2019-03-05T00:19:18.609Z,93839.94
2019-03-05T00:21:47.280Z,93845.81
2019-03-05T00:24:51.900Z,93840.98
2019-03-05T00:27:21.974Z,93841.00
2019-03-05T00:30:12.922Z,93851.25
2019-03-05T00:32:44.213Z,93840.50
2019-03-05T00:35:27.514Z,93852.02
2019-03-05T00:38:01.999Z,93857.30
2019-03-05T00:40:36.525Z,93841.34
2019-03-05T00:43:11.181Z,93841.45
2019-03-05T00:45:54.560Z,93832.71
2019-03-05T00:48:45.815Z,93842.00
2019-03-05T00:51:36.580Z,93840.37
2019-03-05T00:54:19.892Z,93841.19
2019-03-05T00:57:09.690Z,93848.45
2019-03-05T00:59:57.391Z,93853.12
2019-03-05T01:02:34.548Z,93855.53
2019-03-05T01:05:25.515Z,93850.89
2019-03-05T01:07:54.511Z,93853.69
2019-03-05T01:10:23.687Z,93860.42
2019-03-05T01:12:52.499Z,93864.87
2019-03-05T01:15:21.267Z,93865.37
2019-03-05T01:17:49.946Z,93862.12
2019-03-05T01:20:18.610Z,93861.77
2019-03-05T01:22:47.277Z,93852.44
2019-03-05T01:25:33.509Z,93854.61
2019-03-05T01:28:02.380Z,93853.85
2019-03-05T01:30:38.281Z,93838.55
2019-03-05T01:33:08.907Z,93840.48
2019-03-05T01:35:39.166Z,93844.72
2019-03-05T01:38:07.833Z,93843.52
2019-03-05T01:40:37.403Z,93833.94
2019-03-05T01:43:06.064Z,93838.12
2019-03-05T01:45:34.727Z,93835.33
2019-03-05T01:48:03.400Z,93827.86
2019-03-05T01:50:32.064Z,93829.88
2019-03-05T01:53:00.739Z,93830.02
2019-03-05T01:55:29.458Z,93817.46
2019-03-05T01:57:58.125Z,93813.22
2019-03-05T02:00:27.094Z,93808.89
2019-03-05T02:02:55.778Z,93808.44
2019-03-05T02:05:24.447Z,93804.15
2019-03-05T02:07:54.016Z,93806.26
2019-03-05T02:10:23.008Z,93800.11
2019-03-05T02:12:51.680Z,93797.83
2019-03-05T02:15:22.864Z,93788.92
2019-03-05T02:17:51.543Z,93784.14
2019-03-05T02:20:24.916Z,93785.74
2019-03-05T02:23:02.389Z,93787.09
2019-03-05T02:25:33.975Z,93781.15
2019-03-05T02:28:36.724Z,93789.63
2019-03-05T02:31:26.568Z,93798.13
2019-03-05T02:34:12.963Z,93790.17
2019-03-05T02:37:09.911Z,93778.70
2019-03-05T02:39:53.515Z,93778.50
2019-03-05T02:42:33.803Z,93781.71
2019-03-05T02:45:23.349Z,93786.51
2019-03-05T02:48:22.287Z,93791.66
2019-03-05T02:51:16.121Z,93784.78
2019-03-05T02:53:53.754Z,93779.78
2019-03-05T02:56:34.107Z,93775.18
2019-03-05T02:59:01.465Z,93776.39
2019-03-05T03:01:31.710Z,93775.72
2019-03-05T03:04:01.944Z,93771.36
2019-03-05T03:06:31.130Z,93777.38
2019-03-05T03:09:25.314Z,93773.98
2019-03-05T03:11:53.984Z,93774.43
2019-03-05T03:14:22.660Z,93774.05
2019-03-05T03:16:51.327Z,93783.17
2019-03-05T03:19:19.987Z,93787.27
2019-03-05T03:21:48.674Z,93804.37
2019-03-05T03:24:17.339Z,93809.04
2019-03-05T03:26:46.019Z,93806.61
2019-03-05T03:29:14.686Z,93800.95
2019-03-05T03:31:43.362Z,93796.37
2019-03-05T03:34:12.142Z,93813.02
2019-03-05T03:36:40.808Z,93825.71
2019-03-05T03:39:09.621Z,93837.23
2019-03-05T03:41:38.263Z,93834.34
2019-03-05T03:44:06.937Z,93835.52
2019-03-05T03:46:35.599Z,93829.25
2019-03-05T03:49:04.287Z,93820.69
2019-03-05T03:51:32.980Z,93819.93
2019-03-05T03:54:01.686Z,93819.70
2019-03-05T03:56:30.363Z,93820.33
2019-03-05T03:58:59.047Z,93831.05
2019-03-05T04:01:27.707Z,93833.52
2019-03-05T04:03:56.506Z,93834.66
2019-03-05T04:06:25.182Z,93845.75
2019-03-05T04:08:53.852Z,93841.13
2019-03-05T04:11:22.639Z,93857.90
2019-03-05T04:13:51.301Z,93853.39
2019-03-05T04:16:19.998Z,93848.23
2019-03-05T04:18:48.698Z,93859.28
2019-03-05T04:21:19.931Z,93862.30
2019-03-05T04:23:47.769Z,93856.02
2019-03-05T04:26:16.431Z,93844.52
2019-03-05T04:28:45.098Z,93844.61
2019-03-05T04:31:13.779Z,93848.27
2019-03-05T04:33:42.448Z,93855.82
2019-03-05T04:36:11.130Z,93871.69
2019-03-05T04:38:39.795Z,93864.14
2019-03-05T04:41:08.476Z,93861.50
2019-03-05T04:43:37.143Z,93866.63
2019-03-05T04:46:10.216Z,93863.95
2019-03-05T04:48:38.879Z,93867.29
2019-03-05T04:51:11.810Z,93861.20
2019-03-05T04:53:40.478Z,93867.50
2019-03-05T04:56:09.139Z,93882.28
2019-03-05T04:58:37.896Z,93884.70
2019-03-05T05:01:06.568Z,93874.91
2019-03-05T05:03:35.234Z,93875.84
2019-03-05T05:06:03.915Z,93878.98
2019-03-05T05:08:32.579Z,93879.95
2019-03-05T05:11:01.244Z,93883.87
2019-03-05T05:13:29.906Z,93889.25
2019-03-05T05:15:58.573Z,93901.19
2019-03-05T05:18:27.270Z,93900.45
2019-03-05T05:20:55.944Z,93900.28
2019-03-05T05:23:24.641Z,93897.52
2019-03-05T05:25:53.303Z,93898.42
2019-03-05T05:28:21.966Z,93897.95
2019-03-05T05:30:50.643Z,93895.52
2019-03-05T05:33:19.329Z,93888.13
2019-03-05T05:35:47.991Z,93891.08
2019-03-05T05:38:16.677Z,93898.74
2019-03-05T05:40:47.441Z,93902.20
2019-03-05T05:43:22.005Z,93895.13
2019-03-05T05:45:52.480Z,93889.17
2019-03-05T05:48:21.159Z,93891.38
2019-03-05T05:50:49.829Z,93891.39
2019-03-05T05:53:18.529Z,93907.64
2019-03-05T05:55:48.002Z,93904.30
2019-03-05T05:58:16.809Z,93903.52
2019-03-05T06:00:50.018Z,93905.41
2019-03-05T06:03:18.685Z,93913.47
2019-03-05T06:05:47.371Z,93916.53
2019-03-05T06:08:16.115Z,93912.51
2019-03-05T06:10:44.897Z,93914.63
2019-03-05T06:13:13.563Z,93916.07
2019-03-05T06:15:42.229Z,93923.32
2019-03-05T06:18:11.114Z,93927.10
2019-03-05T06:20:42.429Z,93927.62
2019-03-05T06:23:10.317Z,93932.45
2019-03-05T06:25:40.452Z,93924.61
2019-03-05T06:28:09.129Z,93910.50
2019-03-05T06:30:40.117Z,93905.55
2019-03-05T06:33:08.787Z,93925.16
2019-03-05T06:35:37.479Z,93930.80
2019-03-05T06:38:06.130Z,93939.69
2019-03-05T06:40:34.829Z,93940.27
2019-03-05T06:43:03.588Z,93951.16
2019-03-05T06:45:32.308Z,93952.98
2019-03-05T06:48:00.982Z,93956.53
2019-03-05T06:50:30.123Z,93941.08
2019-03-05T06:52:58.783Z,93963.39
2019-03-05T06:55:27.454Z,93959.78
2019-03-05T06:57:58.458Z,93970.56
2019-03-05T07:00:36.662Z,93974.31
2019-03-05T07:03:07.694Z,93970.30
2019-03-05T07:06:12.603Z,93973.38
2019-03-05T07:08:47.191Z,93969.11
2019-03-05T07:11:36.937Z,93970.34
2019-03-05T07:14:23.671Z,93967.13
2019-03-05T07:17:07.336Z,93973.22
2019-03-05T07:19:44.922Z,93985.61
2019-03-05T07:22:22.879Z,93987.33
2019-03-05T07:24:51.826Z,93989.23
2019-03-05T07:27:23.811Z,93983.38
2019-03-05T07:29:53.081Z,93974.58
2019-03-05T07:32:21.781Z,93969.41
2019-03-05T07:34:52.264Z,93969.95
2019-03-05T07:37:20.927Z,93972.94
2019-03-05T07:39:49.689Z,93968.53
2019-03-05T07:42:18.384Z,93976.78
2019-03-05T07:44:47.588Z,93979.84
2019-03-05T07:47:16.412Z,93985.09
2019-03-05T07:49:45.105Z,93987.58
2019-03-05T07:52:13.956Z,93974.48
2019-03-05T07:54:44.206Z,93998.23
2019-03-05T07:57:12.938Z,93997.73
2019-03-05T07:59:41.596Z,93995.17
2019-03-05T08:02:12.364Z,93990.23
2019-03-05T08:04:41.085Z,93994.91
2019-03-05T08:07:09.906Z,93977.83
2019-03-05T08:09:39.108Z,93978.52
2019-03-05T08:12:19.761Z,93965.84
2019-03-05T08:15:03.523Z,93985.63
2019-03-05T08:17:32.340Z,93982.27
2019-03-05T08:20:02.741Z,93980.18
2019-03-05T08:22:31.532Z,93975.49
2019-03-05T08:25:00.354Z,93969.37
2019-03-05T08:27:29.125Z,93978.44
2019-03-05T08:29:57.902Z,93981.12
2019-03-05T08:32:26.621Z,93981.27
2019-03-05T08:34:58.477Z,93977.77
2019-03-05T08:37:27.589Z,93988.23
2019-03-05T08:39:56.509Z,93984.09
2019-03-05T08:42:26.875Z,93980.09
2019-03-05T08:44:55.676Z,93985.75
2019-03-05T08:47:24.344Z,93988.73
2019-03-05T08:49:53.072Z,93988.52
2019-03-05T08:52:22.071Z,93994.28
2019-03-05T08:54:50.752Z,93984.29
2019-03-05T08:57:19.444Z,93981.18
2019-03-05T08:59:48.167Z,93976.98
2019-03-05T09:02:16.833Z,93978.65
2019-03-05T09:04:45.511Z,93980.28
2019-03-05T09:07:17.348Z,93977.34
2019-03-05T09:09:46.103Z,93969.68
2019-03-05T09:12:15.024Z,93964.20
2019-03-05T09:14:43.799Z,93966.42
2019-03-05T09:17:12.861Z,93961.57
2019-03-05T09:19:41.588Z,93967.39
2019-03-05T09:22:10.365Z,93956.02
2019-03-05T09:24:39.144Z,93958.81
2019-03-05T09:27:07.890Z,93961.35
2019-03-05T09:29:36.639Z,93959.34
2019-03-05T09:32:05.403Z,93935.37
2019-03-05T09:34:34.301Z,93956.38
2019-03-05T09:37:03.037Z,93968.27
2019-03-05T09:39:31.888Z,93962.02
2019-03-05T09:42:00.733Z,93965.14
2019-03-05T09:44:29.578Z,93960.78
2019-03-05T09:46:58.382Z,93963.70
2019-03-05T09:49:27.040Z,93965.52
2019-03-05T09:51:55.775Z,93964.09
2019-03-05T09:54:24.467Z,93959.52
2019-03-05T09:56:53.229Z,93955.38
2019-03-05T09:59:22.144Z,93956.77
2019-03-05T10:01:51.523Z,93959.84
2019-03-05T10:04:20.287Z,93951.46
2019-03-05T10:06:49.114Z,93937.63
2019-03-05T10:09:19.750Z,93943.25
2019-03-05T10:11:48.504Z,93941.83
2019-03-05T10:14:17.403Z,93937.91
2019-03-05T10:16:46.099Z,93938.25
2019-03-05T10:19:14.898Z,93934.75
2019-03-05T10:21:46.441Z,93926.21
2019-03-05T10:24:14.724Z,93945.86
2019-03-05T10:26:43.665Z,93932.69
2019-03-05T10:29:12.461Z,93937.22
2019-03-05T10:31:41.168Z,93924.83
2019-03-05T10:34:13.196Z,93929.26
2019-03-05T10:36:41.882Z,93902.28
2019-03-05T10:39:29.927Z,93922.52
2019-03-05T10:41:52.477Z,93914.85
2019-03-05T10:44:21.209Z,93918.67
2019-03-05T10:46:49.990Z,93926.09
2019-03-05T10:49:18.684Z,93919.63
2019-03-05T10:51:47.509Z,93915.80
2019-03-05T10:54:16.267Z,93897.42
2019-03-05T10:56:45.037Z,93906.51
2019-03-05T10:59:13.873Z,93890.80
2019-03-05T11:01:42.954Z,93887.56
2019-03-05T11:04:11.679Z,93893.00
2019-03-05T11:06:40.413Z,93886.02
2019-03-05T11:09:09.912Z,93879.34
2019-03-05T11:11:38.576Z,93875.31
2019-03-05T11:14:07.837Z,93878.50
2019-03-05T11:16:36.495Z,93862.98
2019-03-05T11:19:05.584Z,93874.16
2019-03-05T11:21:34.369Z,93864.00
2019-03-05T11:24:03.358Z,93872.10
2019-03-05T11:26:32.206Z,93865.08
2019-03-05T11:29:00.851Z,93854.72
2019-03-05T11:31:29.532Z,93860.52
2019-03-05T11:33:58.322Z,93860.14
2019-03-05T11:36:27.299Z,93848.25
2019-03-05T11:38:56.079Z,93851.39
2019-03-05T11:41:24.766Z,93840.91
2019-03-05T11:43:54.922Z,93848.09
2019-03-05T11:46:23.675Z,93857.08
2019-03-05T11:48:52.402Z,93858.97
2019-03-05T11:51:21.302Z,93873.11
2019-03-05T11:53:50.166Z,93858.44
2019-03-05T11:56:18.877Z,93855.86
2019-03-05T11:58:47.619Z,93855.47
2019-03-05T12:01:26.212Z,93845.89
2019-03-05T12:03:55.014Z,93845.69
2019-03-05T12:06:23.788Z,93843.80
2019-03-05T12:08:52.778Z,93850.81
2019-03-05T12:11:21.659Z,93841.98
2019-03-05T12:13:50.527Z,93841.50
2019-03-05T12:16:19.215Z,93845.66
2019-03-05T12:18:47.924Z,93850.98
2019-03-05T12:21:16.708Z,93848.13
2019-03-05T12:23:47.346Z,93847.95
2019-03-05T12:26:16.117Z,93852.78
2019-03-05T12:28:44.882Z,93855.67
2019-03-05T12:31:13.649Z,93849.73
2019-03-05T12:33:42.419Z,93849.25
2019-03-05T12:36:11.804Z,93850.91
2019-03-05T12:38:40.764Z,93847.69
2019-03-05T12:41:09.515Z,93850.63
2019-03-05T12:43:38.261Z,93856.66
2019-03-05T12:46:07.034Z,93856.47
2019-03-05T12:48:40.031Z,93857.86
2019-03-05T12:51:06.174Z,93852.43
2019-03-05T12:53:35.011Z,93863.19
2019-03-05T12:56:03.683Z,93858.97
2019-03-05T12:58:32.596Z,93856.27
2019-03-05T13:01:01.334Z,93853.20
2019-03-05T13:03:30.663Z,93853.39
2019-03-05T13:05:59.543Z,93849.59
2019-03-05T13:08:28.805Z,93844.67
2019-03-05T13:10:57.604Z,93846.75
2019-03-05T13:13:26.440Z,93845.97
2019-03-05T13:15:56.488Z,93850.07
2019-03-05T13:18:26.913Z,93842.27
2019-03-05T13:20:56.166Z,93852.52
2019-03-05T13:23:25.038Z,93853.38
2019-03-05T13:25:53.715Z,93850.78
2019-03-05T13:28:22.432Z,93854.98
2019-03-05T13:30:51.256Z,93854.73
2019-03-05T13:33:19.903Z,93847.48
2019-03-05T13:35:48.596Z,93848.22
2019-03-05T13:38:17.288Z,93848.41
2019-03-05T13:40:45.983Z,93852.88
2019-03-05T13:43:14.703Z,93851.46
2019-03-05T13:45:49.171Z,93857.03
2019-03-05T13:48:29.305Z,93855.11
2019-03-05T13:51:19.588Z,93812.06
2019-03-05T13:54:17.858Z,93860.13
2019-03-05T13:57:22.854Z,93861.41
2019-03-05T13:59:51.631Z,93855.72
2019-03-05T14:02:25.861Z,93855.68
2019-03-05T14:05:06.215Z,93849.25
2019-03-05T14:07:50.092Z,93848.55
2019-03-05T14:10:18.940Z,93850.87
2019-03-05T14:12:47.634Z,93855.63
2019-03-05T14:15:17.020Z,93838.03
2019-03-05T14:17:46.161Z,93860.26
2019-03-05T14:20:17.970Z,93855.84
2019-03-05T14:22:46.708Z,93856.16
2019-03-05T14:25:16.462Z,93856.02
2019-03-05T14:27:45.201Z,93850.48
2019-03-05T14:30:20.979Z,93853.06
2019-03-05T14:32:50.189Z,93854.64
2019-03-05T14:35:20.085Z,93858.09
2019-03-05T14:37:48.991Z,93865.00
2019-03-05T14:40:24.479Z,93870.67
2019-03-05T14:42:51.123Z,93869.42
2019-03-05T14:45:22.772Z,93865.90
2019-03-05T14:47:52.874Z,93871.55
2019-03-05T14:50:21.586Z,93865.66
2019-03-05T14:52:50.400Z,93872.63
2019-03-05T14:55:19.127Z,93865.17
2019-03-05T14:57:48.008Z,93866.88
2019-03-05T15:00:19.384Z,93867.31
2019-03-05T15:02:48.134Z,93864.56
2019-03-05T15:05:16.989Z,93862.91
2019-03-05T15:07:46.073Z,93860.95
2019-03-05T15:10:14.832Z,93857.66
2019-03-05T15:12:43.621Z,93859.29
2019-03-05T15:15:21.190Z,93852.30
2019-03-05T15:17:50.278Z,93856.34
2019-03-05T15:20:19.015Z,93864.97
2019-03-05T15:22:47.718Z,93864.22
2019-03-05T15:25:17.506Z,93859.94
2019-03-05T15:27:46.408Z,93858.02
2019-03-05T15:30:20.481Z,93868.80
2019-03-05T15:32:49.234Z,93865.33
2019-03-05T15:35:17.987Z,93859.84
2019-03-05T15:37:46.688Z,93866.55
2019-03-05T15:40:17.186Z,93861.70
2019-03-05T15:42:46.020Z,93862.16
2019-03-05T15:45:24.969Z,93864.47
2019-03-05T15:47:53.671Z,93872.31
2019-03-05T15:50:25.199Z,93870.59
2019-03-05T15:52:53.885Z,93874.60
2019-03-05T15:55:22.592Z,93878.37
2019-03-05T15:57:51.446Z,93877.59
2019-03-05T16:00:29.188Z,93880.86
2019-03-05T16:02:58.026Z,93889.02
2019-03-05T16:05:30.368Z,93893.69
2019-03-05T16:08:00.877Z,93900.34
2019-03-05T16:10:31.891Z,93881.63
2019-03-05T16:13:00.584Z,93909.66
2019-03-05T16:15:29.303Z,93913.23
2019-03-05T16:18:01.343Z,93917.05
2019-03-05T16:20:29.778Z,93918.63
2019-03-05T16:22:58.565Z,93858.50
2019-03-05T16:25:27.266Z,93925.70
2019-03-05T16:27:56.155Z,93925.72
2019-03-05T16:30:47.373Z,93926.45
2019-03-05T16:33:23.999Z,93935.81
2019-03-05T16:36:03.437Z,93941.80
2019-03-05T16:38:51.117Z,93943.38
2019-03-05T16:41:34.056Z,93950.42
2019-03-05T16:44:16.270Z,93958.73
2019-03-05T16:46:58.755Z,93963.15
2019-03-05T16:49:29.364Z,93966.41
2019-03-05T16:52:02.388Z,93970.18
2019-03-05T16:54:32.628Z,93973.83
2019-03-05T16:57:08.925Z,93983.83
2019-03-05T16:59:39.472Z,93989.71
2019-03-05T17:02:16.802Z,94005.09
2019-03-05T17:04:50.234Z,94004.74
2019-03-05T17:07:22.911Z,94010.43
2019-03-05T17:09:53.142Z,94013.75
2019-03-05T17:12:21.890Z,94019.09
2019-03-05T17:14:50.659Z,94026.86
2019-03-05T17:17:19.391Z,94024.83
2019-03-05T17:19:48.800Z,94029.22
2019-03-05T17:22:17.521Z,94032.36
2019-03-05T17:24:46.480Z,94033.30
2019-03-05T17:27:15.155Z,94034.02
2019-03-05T17:29:43.824Z,94034.34
2019-03-05T17:32:12.821Z,94030.73
2019-03-05T17:34:41.471Z,94035.96
2019-03-05T17:37:10.175Z,94041.48
2019-03-05T17:39:38.823Z,94046.70
2019-03-05T17:42:07.509Z,94042.89
2019-03-05T17:44:36.335Z,94045.59
2019-03-05T17:47:05.086Z,94055.31
2019-03-05T17:49:33.747Z,94054.98
2019-03-05T17:52:02.582Z,94060.57
2019-03-05T17:54:31.229Z,94066.24
2019-03-05T17:57:00.092Z,94063.02
2019-03-05T17:59:29.034Z,94067.05
2019-03-05T18:01:57.727Z,94070.30
2019-03-05T18:04:26.500Z,94079.13
2019-03-05T18:06:55.179Z,94082.54
2019-03-05T18:09:23.845Z,94090.77
2019-03-05T18:11:52.605Z,94091.96
2019-03-05T18:14:21.291Z,94087.50
2019-03-05T18:16:49.987Z,94085.11
2019-03-05T18:19:18.662Z,94088.52
2019-03-05T18:21:47.379Z,94090.57
2019-03-05T18:24:16.044Z,94099.58
2019-03-05T18:26:44.719Z,94098.81
2019-03-05T18:29:13.462Z,94100.64
2019-03-05T18:31:42.149Z,94099.96
2019-03-05T18:34:10.936Z,94094.06
2019-03-05T18:36:39.657Z,94102.55
2019-03-05T18:39:08.648Z,94105.34
2019-03-05T18:41:37.379Z,94102.88
2019-03-05T18:44:06.151Z,94109.61
2019-03-05T18:46:34.861Z,94115.92
2019-03-05T18:49:03.720Z,94113.56
2019-03-05T18:51:32.537Z,94110.97
2019-03-05T18:54:01.242Z,94120.51
2019-03-05T18:56:29.907Z,94128.09
2019-03-05T18:58:58.587Z,94127.08
2019-03-05T19:01:27.292Z,94138.23
2019-03-05T19:03:55.998Z,94137.09
2019-03-05T19:06:24.758Z,94135.59
2019-03-05T19:08:53.427Z,94137.25
2019-03-05T19:11:22.139Z,94139.59
2019-03-05T19:13:50.811Z,94147.02
2019-03-05T19:16:19.486Z,94140.33
2019-03-05T19:18:48.149Z,94149.02
2019-03-05T19:21:16.835Z,94154.09
2019-03-05T19:23:45.562Z,94151.41
2019-03-05T19:26:14.208Z,94145.60
2019-03-05T19:28:42.924Z,94145.48
2019-03-05T19:31:11.616Z,94149.57
2019-03-05T19:33:40.303Z,94153.78
2019-03-05T19:36:08.966Z,94152.93
2019-03-05T19:38:37.649Z,94158.89
2019-03-05T19:41:06.317Z,94162.09
2019-03-05T19:43:34.990Z,94164.09
2019-03-05T19:46:03.689Z,94166.94
2019-03-05T19:48:32.333Z,94174.27
2019-03-05T19:51:01.019Z,94176.83
2019-03-05T19:53:29.703Z,94184.78
2019-03-05T19:55:58.810Z,94188.62
2019-03-05T19:58:27.474Z,94189.61
2019-03-05T20:01:03.763Z,94194.83
2019-03-05T20:03:32.499Z,94197.31
2019-03-05T20:06:01.270Z,94200.41
2019-03-05T20:08:39.152Z,94205.23
2019-03-05T20:11:00.458Z,94205.73
2019-03-05T20:13:29.218Z,94212.19
2019-03-05T20:15:58.101Z,94214.83
2019-03-05T20:18:26.845Z,94217.80
2019-03-05T20:20:55.571Z,94222.25
2019-03-05T20:23:24.712Z,94219.53
2019-03-05T20:25:53.696Z,94218.52
2019-03-05T20:28:22.359Z,94220.23
2019-03-05T20:30:51.099Z,94228.92
2019-03-05T20:33:19.799Z,94223.57
2019-03-05T20:35:49.055Z,94233.00
2019-03-05T20:38:17.728Z,94234.14
2019-03-05T20:40:46.413Z,94244.05
2019-03-05T20:43:16.117Z,94248.15
2019-03-05T20:45:47.239Z,94248.77
2019-03-05T20:48:16.206Z,94245.05
2019-03-05T20:50:44.980Z,94252.09
2019-03-05T20:53:13.652Z,94250.12
2019-03-05T20:55:42.485Z,94255.53
2019-03-05T20:58:11.184Z,94256.16
2019-03-05T21:00:40.660Z,94261.60
2019-03-05T21:03:10.777Z,94265.28
2019-03-05T21:05:48.128Z,94264.98
2019-03-05T21:08:16.829Z,94273.50
2019-03-05T21:10:45.611Z,94274.72
2019-03-05T21:13:16.383Z,94288.82
2019-03-05T21:15:45.056Z,94304.55
2019-03-05T21:18:15.343Z,94314.57
2019-03-05T21:20:44.035Z,94318.36
2019-03-05T21:23:12.698Z,94339.83
2019-03-05T21:25:41.405Z,94346.11
2019-03-05T21:28:10.107Z,94356.07
2019-03-05T21:30:38.746Z,94350.73
2019-03-05T21:33:07.449Z,94360.46
2019-03-05T21:35:36.150Z,94360.22
2019-03-05T21:38:04.815Z,94357.73
2019-03-05T21:40:34.088Z,94355.06
2019-03-05T21:43:02.883Z,94355.95
2019-03-05T21:45:34.401Z,94356.57
2019-03-05T21:48:03.662Z,94347.08
2019-03-05T21:50:32.883Z,94346.39
2019-03-05T21:53:01.778Z,94352.34
2019-03-05T21:55:30.434Z,94353.84
2019-03-05T21:57:59.105Z,94357.29
2019-03-05T22:00:32.555Z,94361.83
2019-03-05T22:03:02.264Z,94362.84
2019-03-05T22:05:32.287Z,94348.08
2019-03-05T22:08:00.913Z,94327.91
2019-03-05T22:10:30.068Z,94322.23
2019-03-05T22:12:58.859Z,94324.86
2019-03-05T22:15:30.398Z,94331.16
2019-03-05T22:17:59.062Z,94339.14
2019-03-05T22:20:28.031Z,94344.50
2019-03-05T22:22:57.087Z,94352.95
2019-03-05T22:25:26.366Z,94360.31
2019-03-05T22:27:55.066Z,94367.23
2019-03-05T22:30:34.706Z,94368.97
2019-03-05T22:33:03.367Z,94373.91
2019-03-05T22:35:32.068Z,94375.89
2019-03-05T22:38:00.766Z,94373.24
2019-03-05T22:40:30.084Z,94372.98
2019-03-05T22:42:58.729Z,94369.84
2019-03-05T22:45:31.914Z,94367.81
2019-03-05T22:48:00.616Z,94373.72
2019-03-05T22:50:29.304Z,94372.66
2019-03-05T22:52:57.965Z,94372.38
2019-03-05T22:55:26.638Z,94376.58
2019-03-05T22:57:55.590Z,94385.59
2019-03-05T23:00:43.956Z,94384.23
2019-03-05T23:03:15.354Z,94390.44
2019-03-05T23:05:44.016Z,94384.15
2019-03-05T23:08:12.673Z,94386.91
2019-03-05T23:10:41.341Z,94379.11
2019-03-05T23:13:10.103Z,94382.84
2019-03-05T23:15:39.063Z,94386.69
2019-03-05T23:18:07.723Z,94386.13
2019-03-05T23:20:36.504Z,94390.89
2019-03-05T23:23:05.270Z,94392.98
2019-03-05T23:25:33.941Z,94399.34
2019-03-05T23:28:02.601Z,94396.32
2019-03-05T23:30:31.591Z,94399.03
2019-03-05T23:33:00.248Z,94393.61
2019-03-05T23:35:28.929Z,94393.72
2019-03-05T23:37:57.808Z,94398.27
2019-03-05T23:40:26.478Z,94396.20
2019-03-05T23:42:55.200Z,94400.35
2019-03-05T23:45:23.881Z,94399.11
2019-03-05T23:47:52.534Z,94401.13
2019-03-05T23:50:21.206Z,94399.91
2019-03-05T23:52:49.918Z,94394.34
2019-03-05T23:55:18.984Z,94386.21
2019-03-05T23:57:47.726Z,94386.31
